Time;durP1;ratioP1;P1;durP2;ratioP2;P2;SDS_P1;SDS_P2;PMS_P1;PMS_P2;Temp;Humidity;BMP_temperature;BMP_pressure;BME280_temperature;BME280_humidity;BME280_pressure;Samples;Min_cycle;Max_cycle;Signal;HPM_P1;HPM_P2
2023/04/08 00:00:06;;;;;;;6.50;5.90;;;6.50;99.90;;;;;;5007811;28;20518;-52
2023/04/08 00:02:33;;;;;;;6.97;5.60;;;6.40;99.90;;;;;;5014625;28;20455;-51
2023/04/08 00:05:00;;;;;;;7.70;5.93;;;6.40;99.90;;;;;;5014236;28;20440;-51
2023/04/08 00:07:27;;;;;;;5.53;4.90;;;6.20;99.90;;;;;;5007186;28;20463;-52
2023/04/08 00:09:55;;;;;;;7.30;5.20;;;6.10;99.90;;;;;;4995049;28;20503;-50
2023/04/08 00:12:23;;;;;;;7.70;5.50;;;6.10;99.90;;;;;;4994789;28;20575;-51
2023/04/08 00:14:50;;;;;;;6.50;5.57;;;6.10;99.90;;;;;;4995044;28;20484;-51
2023/04/08 00:17:17;;;;;;;5.73;5.17;;;6.10;99.90;;;;;;4994229;28;20491;-54
2023/04/08 00:19:45;;;;;;;5.60;5.10;;;6.20;99.90;;;;;;4994951;28;20494;-52
2023/04/08 00:22:12;;;;;;;5.73;4.70;;;6.20;99.90;;;;;;4994464;28;20499;-53
2023/04/08 00:24:39;;;;;;;6.23;5.50;;;6.20;99.90;;;;;;4994528;28;20819;-51
2023/04/08 00:27:06;;;;;;;6.97;5.50;;;6.30;99.90;;;;;;4994871;28;20461;-53
2023/04/08 00:29:34;;;;;;;5.93;5.23;;;6.30;99.90;;;;;;5006219;28;20448;-52
2023/04/08 00:32:02;;;;;;;6.47;5.60;;;6.30;99.90;;;;;;4996251;28;20951;-52
2023/04/08 00:34:29;;;;;;;8.93;6.00;;;6.10;99.90;;;;;;4994502;28;20450;-51
2023/04/08 00:36:56;;;;;;;6.70;5.47;;;6.00;99.90;;;;;;4994478;28;20464;-51
2023/04/08 00:39:23;;;;;;;5.70;4.43;;;5.90;99.90;;;;;;4995282;28;20564;-52
2023/04/08 00:41:50;;;;;;;6.20;5.07;;;6.00;99.90;;;;;;4994325;28;20823;-52
2023/04/08 00:44:17;;;;;;;7.87;6.80;;;6.00;99.90;;;;;;4994659;28;20475;-52
2023/04/08 00:46:46;;;;;;;10.03;7.53;;;6.00;99.90;;;;;;4993967;28;21037;-52
2023/04/08 00:49:13;;;;;;;9.37;6.00;;;5.80;99.90;;;;;;4994209;28;20448;-55
2023/04/08 00:51:40;;;;;;;6.93;5.70;;;5.90;99.90;;;;;;4993616;28;20866;-52
2023/04/08 00:54:07;;;;;;;7.93;6.23;;;6.00;99.90;;;;;;4993987;28;20515;-53
2023/04/08 00:56:35;;;;;;;6.53;5.43;;;5.90;99.90;;;;;;4993366;28;20500;-52
2023/04/08 00:59:03;;;;;;;6.47;5.40;;;5.90;99.90;;;;;;4993608;28;21050;-52
2023/04/08 01:01:37;;;;;;;9.30;6.30;;;5.90;99.90;;;;;;4993779;28;20725;-52
2023/04/08 01:04:16;;;;;;;5.40;4.90;;;5.80;99.90;;;;;;4993893;28;20541;-52
2023/04/08 01:06:49;;;;;;;6.67;5.17;;;5.90;99.90;;;;;;4993927;28;20546;-52
2023/04/08 01:09:21;;;;;;;6.63;5.93;;;5.70;99.90;;;;;;4993838;28;20440;-53
2023/04/08 01:11:51;;;;;;;5.27;4.70;;;5.50;99.90;;;;;;4993928;28;20547;-50
2023/04/08 01:14:21;;;;;;;4.67;4.27;;;5.70;99.90;;;;;;5006613;28;20892;-52
2023/04/08 01:16:48;;;;;;;5.67;5.10;;;5.70;99.90;;;;;;5012807;28;20467;-53
2023/04/08 01:19:24;;;;;;;5.97;5.37;;;5.90;99.90;;;;;;5000581;28;20472;-51
2023/04/08 01:21:51;;;;;;;4.87;4.40;;;5.70;99.90;;;;;;4995750;28;20455;-52
2023/04/08 01:24:26;;;;;;;6.10;4.87;;;5.70;99.90;;;;;;4994996;28;20872;-52
2023/04/08 01:26:56;;;;;;;6.33;5.40;;;5.70;99.90;;;;;;4993677;28;20475;-53
2023/04/08 01:29:24;;;;;;;5.67;5.07;;;5.60;99.90;;;;;;4994187;28;20451;-53
2023/04/08 01:31:53;;;;;;;6.73;5.40;;;5.70;99.90;;;;;;4993798;28;20502;-53
2023/04/08 01:34:22;;;;;;;6.33;5.70;;;5.60;99.90;;;;;;4993900;28;20495;-52
2023/04/08 01:36:49;;;;;;;5.77;5.27;;;5.60;99.90;;;;;;4998507;28;20506;-51
2023/04/08 01:39:17;;;;;;;5.93;4.50;;;5.60;99.90;;;;;;5007527;28;20479;-51
2023/04/08 01:41:46;;;;;;;6.37;5.47;;;5.40;99.90;;;;;;5013354;28;20478;-52
2023/04/08 01:44:15;;;;;;;7.77;6.40;;;5.40;99.90;;;;;;5013155;28;20478;-52
2023/04/08 01:46:43;;;;;;;6.70;5.57;;;5.50;99.90;;;;;;4983683;28;20503;-52
2023/04/08 01:49:11;;;;;;;8.87;5.80;;;5.50;99.90;;;;;;4994046;28;20886;-52
2023/04/08 01:51:38;;;;;;;5.90;5.30;;;5.60;99.90;;;;;;4993503;28;20891;-54
2023/04/08 01:54:06;;;;;;;5.90;5.10;;;5.60;99.90;;;;;;4993598;28;20468;-53
2023/04/08 01:56:36;;;;;;;6.40;5.80;;;5.70;99.90;;;;;;4993327;28;20464;-50
2023/04/08 01:59:07;;;;;;;6.37;5.77;;;5.60;99.90;;;;;;5002760;28;20447;-51
2023/04/08 02:01:36;;;;;;;6.03;4.97;;;5.60;99.90;;;;;;5013750;28;20471;-52
2023/04/08 02:04:04;;;;;;;6.80;5.40;;;5.60;99.90;;;;;;4994506;28;20535;-53
2023/04/08 02:06:31;;;;;;;8.40;4.90;;;5.50;99.90;;;;;;4993513;28;20448;-52
2023/04/08 02:08:59;;;;;;;6.80;6.00;;;5.60;99.90;;;;;;4985582;28;20453;-53
2023/04/08 02:11:27;;;;;;;6.57;5.87;;;5.60;99.90;;;;;;4997169;28;20530;-52
2023/04/08 02:13:54;;;;;;;6.00;5.40;;;5.50;99.90;;;;;;4998802;28;20452;-52
2023/04/08 02:16:24;;;;;;;6.20;4.87;;;5.60;99.90;;;;;;4996983;28;20455;-52
2023/04/08 02:19:01;;;;;;;6.67;4.60;;;5.60;99.90;;;;;;4997588;28;20456;-53
2023/04/08 02:21:33;;;;;;;4.63;4.23;;;5.60;99.90;;;;;;4994635;28;20898;-52
2023/04/08 02:24:05;;;;;;;4.87;4.23;;;5.80;99.90;;;;;;5003565;28;20526;-51
2023/04/08 02:26:34;;;;;;;7.60;5.80;;;5.80;99.90;;;;;;5010877;28;20451;-54
2023/04/08 02:29:02;;;;;;;6.20;5.10;;;5.90;99.90;;;;;;4996761;28;20475;-52
2023/04/08 02:31:30;;;;;;;6.60;6.00;;;5.70;99.90;;;;;;4996734;28;20520;-51
2023/04/08 02:33:58;;;;;;;6.57;5.97;;;5.40;99.90;;;;;;4996914;28;20483;-51
2023/04/08 02:36:26;;;;;;;6.43;5.73;;;5.20;99.90;;;;;;5004296;28;20525;-53
2023/04/08 02:38:53;;;;;;;6.60;5.40;;;5.40;99.90;;;;;;5014196;28;20462;-52
2023/04/08 02:41:21;;;;;;;6.37;5.43;;;5.40;99.90;;;;;;5016715;28;20482;-53
2023/04/08 02:43:47;;;;;;;6.77;5.50;;;5.10;99.90;;;;;;5017153;28;20482;-51
2023/04/08 02:46:15;;;;;;;6.27;5.60;;;5.00;99.90;;;;;;5016946;28;20472;-51
2023/04/08 02:48:41;;;;;;;7.80;7.10;;;4.90;99.90;;;;;;5016828;28;20457;-51
2023/04/08 02:51:10;;;;;;;8.57;6.10;;;4.80;99.90;;;;;;5010848;28;20621;-52
2023/04/08 02:53:37;;;;;;;8.00;6.70;;;5.00;99.90;;;;;;4997384;28;21018;-53
2023/04/08 02:56:04;;;;;;;8.00;6.93;;;5.10;99.90;;;;;;4996894;28;20977;-51
2023/04/08 02:58:31;;;;;;;6.80;6.13;;;5.40;99.90;;;;;;4996938;28;20838;-52
2023/04/08 03:00:58;;;;;;;5.97;5.37;;;5.40;99.90;;;;;;4997015;28;21014;-51
2023/04/08 03:03:28;;;;;;;5.60;5.10;;;5.50;99.90;;;;;;4996946;28;20479;-51
2023/04/08 03:05:55;;;;;;;5.50;4.97;;;5.60;99.90;;;;;;4995924;28;20939;-51
2023/04/08 03:08:23;;;;;;;6.17;5.50;;;5.30;99.90;;;;;;4997116;28;20560;-52
2023/04/08 03:10:50;;;;;;;6.40;5.60;;;5.10;99.90;;;;;;5008934;28;20510;-52
2023/04/08 03:13:17;;;;;;;8.17;6.30;;;5.10;99.90;;;;;;5010853;28;20966;-51
2023/04/08 03:15:44;;;;;;;6.40;5.80;;;5.10;99.90;;;;;;4996393;28;20730;-51
2023/04/08 03:18:11;;;;;;;5.67;4.67;;;5.10;99.90;;;;;;4997119;28;20515;-51
2023/04/08 03:20:38;;;;;;;6.73;6.03;;;5.20;99.90;;;;;;4996408;28;20563;-52
2023/04/08 03:23:05;;;;;;;6.23;5.63;;;5.30;99.90;;;;;;4996648;28;20483;-52
2023/04/08 03:25:33;;;;;;;5.70;4.33;;;5.40;99.90;;;;;;4996551;28;20880;-51
2023/04/08 03:28:00;;;;;;;6.40;5.03;;;5.40;99.90;;;;;;4996306;28;20527;-53
2023/04/08 03:30:27;;;;;;;5.27;4.60;;;5.50;99.90;;;;;;4996200;28;20918;-51
2023/04/08 03:32:54;;;;;;;6.37;5.00;;;5.30;99.90;;;;;;4995521;28;20528;-51
2023/04/08 03:35:21;;;;;;;6.30;5.70;;;5.30;99.90;;;;;;4996087;28;20476;-51
2023/04/08 03:37:48;;;;;;;6.20;5.60;;;5.20;99.90;;;;;;4996366;28;20476;-52
2023/04/08 03:40:15;;;;;;;6.73;6.03;;;5.20;99.90;;;;;;4998720;28;20506;-52
2023/04/08 03:42:43;;;;;;;7.30;6.50;;;5.30;99.90;;;;;;5016107;28;20494;-51
2023/04/08 03:45:11;;;;;;;12.50;9.30;;;5.40;99.90;;;;;;4998563;28;20495;-51
2023/04/08 03:47:37;;;;;;;7.43;6.70;;;5.40;99.90;;;;;;4996347;28;20994;-52
2023/04/08 03:50:05;;;;;;;5.83;5.30;;;5.50;99.90;;;;;;4998053;28;20479;-50
2023/04/08 03:52:32;;;;;;;6.10;5.50;;;5.30;99.90;;;;;;5002374;28;20463;-51
2023/04/08 03:54:59;;;;;;;5.67;5.17;;;5.30;99.90;;;;;;4995334;28;20472;-51
2023/04/08 03:57:26;;;;;;;6.40;4.93;;;5.40;99.90;;;;;;4995448;28;20475;-53
2023/04/08 03:59:54;;;;;;;5.27;4.80;;;5.60;99.90;;;;;;4995887;28;20514;-52
2023/04/08 04:02:21;;;;;;;5.53;4.93;;;5.60;99.90;;;;;;4995208;28;20506;-51
2023/04/08 04:04:48;;;;;;;5.67;4.63;;;5.50;99.90;;;;;;4995209;28;20483;-52
2023/04/08 04:07:15;;;;;;;4.60;4.10;;;5.20;99.90;;;;;;4995527;28;20563;-52
2023/04/08 04:09:42;;;;;;;4.87;4.47;;;5.10;99.90;;;;;;4995207;28;20448;-53
2023/04/08 04:12:09;;;;;;;7.00;5.63;;;5.10;99.90;;;;;;4995645;28;20475;-52
2023/04/08 04:14:36;;;;;;;5.83;5.23;;;4.90;99.90;;;;;;4994991;28;20931;-51
2023/04/08 04:17:04;;;;;;;6.07;5.47;;;5.00;99.90;;;;;;4995177;28;21050;-52
2023/04/08 04:19:31;;;;;;;7.33;5.57;;;5.00;99.90;;;;;;4995688;28;20472;-52
2023/04/08 04:21:58;;;;;;;6.00;5.20;;;5.20;99.90;;;;;;4994913;28;20480;-53
2023/04/08 04:24:25;;;;;;;5.30;4.70;;;5.40;99.90;;;;;;5000807;28;20864;-52
2023/04/08 04:26:52;;;;;;;6.33;5.10;;;5.00;99.90;;;;;;5014668;28;20490;-52
2023/04/08 04:29:19;;;;;;;7.47;5.40;;;5.00;99.90;;;;;;5015200;28;20479;-52
2023/04/08 04:31:46;;;;;;;5.13;4.50;;;5.10;99.90;;;;;;5014325;28;20474;-51
2023/04/08 04:34:14;;;;;;;4.87;4.23;;;5.10;99.90;;;;;;4975712;28;20509;-50
2023/04/08 04:36:41;;;;;;;5.70;4.93;;;5.10;99.90;;;;;;4976346;28;20465;-51
2023/04/08 04:39:08;;;;;;;4.60;4.20;;;5.20;99.90;;;;;;4999448;28;20514;-51
2023/04/08 04:41:39;;;;;;;5.20;4.53;;;5.10;99.90;;;;;;5014357;28;21025;-53
2023/04/08 04:44:06;;;;;;;6.00;5.40;;;5.10;99.90;;;;;;5015388;28;20451;-52
2023/04/08 04:46:33;;;;;;;5.80;5.20;;;5.00;99.90;;;;;;5014991;28;20471;-52
2023/04/08 04:49:00;;;;;;;5.53;4.90;;;5.10;99.90;;;;;;5015160;28;20505;-54
2023/04/08 04:51:30;;;;;;;5.40;4.53;;;5.20;99.90;;;;;;5014995;28;20526;-52
2023/04/08 04:53:57;;;;;;;6.53;4.00;;;5.00;99.90;;;;;;5015273;28;20529;-51
2023/04/08 04:56:25;;;;;;;6.40;5.27;;;5.10;99.90;;;;;;5008688;28;20850;-53
2023/04/08 04:58:52;;;;;;;6.50;5.70;;;5.00;99.90;;;;;;4996183;28;20543;-53
2023/04/08 05:01:19;;;;;;;6.13;5.53;;;4.90;99.90;;;;;;4995940;28;20889;-49
2023/04/08 05:03:46;;;;;;;6.83;5.03;;;4.90;99.90;;;;;;4996345;28;20447;-49
2023/04/08 05:06:13;;;;;;;6.20;5.50;;;4.70;99.90;;;;;;4985517;28;20508;-51
2023/04/08 05:08:41;;;;;;;6.03;5.10;;;4.50;99.90;;;;;;4977216;28;20535;-49
2023/04/08 05:11:10;;;;;;;6.20;5.60;;;4.60;99.90;;;;;;4981981;28;20523;-49
2023/04/08 05:13:36;;;;;;;6.00;4.73;;;4.70;99.90;;;;;;4993310;28;20458;-48
2023/04/08 05:16:04;;;;;;;5.73;5.13;;;4.90;99.90;;;;;;4992708;28;20493;-51
2023/04/08 05:18:30;;;;;;;8.00;5.90;;;4.90;99.90;;;;;;4994176;28;20500;-49
2023/04/08 05:20:58;;;;;;;5.50;4.97;;;4.70;99.90;;;;;;4994402;28;20575;-51
2023/04/08 05:23:25;;;;;;;6.40;5.80;;;4.70;99.90;;;;;;4995405;28;20495;-50
2023/04/08 05:25:53;;;;;;;6.10;5.00;;;4.70;99.90;;;;;;4993855;28;20539;-51
2023/04/08 05:28:20;;;;;;;7.57;5.90;;;4.60;99.90;;;;;;4994417;28;20472;-51
2023/04/08 05:30:50;;;;;;;6.77;5.20;;;4.70;99.90;;;;;;4995941;28;20486;-51
2023/04/08 05:33:17;;;;;;;5.80;5.10;;;4.80;99.90;;;;;;4995081;28;20904;-51
2023/04/08 05:35:44;;;;;;;6.03;5.30;;;4.90;99.90;;;;;;4996375;28;20539;-51
2023/04/08 05:38:11;;;;;;;6.13;5.50;;;5.00;99.90;;;;;;4994473;28;20530;-52
2023/04/08 05:40:38;;;;;;;7.27;5.93;;;5.00;99.90;;;;;;4994461;28;20503;-51
2023/04/08 05:43:06;;;;;;;5.77;5.27;;;4.90;99.90;;;;;;4994884;28;20527;-51
2023/04/08 05:45:33;;;;;;;9.43;8.53;;;4.80;99.90;;;;;;4998501;28;20468;-51
2023/04/08 05:48:00;;;;;;;7.73;6.93;;;4.60;99.90;;;;;;4998491;28;20553;-51
2023/04/08 05:50:27;;;;;;;7.10;6.40;;;4.60;99.90;;;;;;5000912;28;20876;-52
2023/04/08 05:52:54;;;;;;;7.37;5.10;;;4.80;99.90;;;;;;4999332;28;21008;-51
2023/04/08 05:55:21;;;;;;;6.53;5.80;;;4.70;99.90;;;;;;4998679;28;20467;-51
2023/04/08 05:57:48;;;;;;;7.60;6.57;;;4.80;99.90;;;;;;4998444;28;20495;-52
2023/04/08 06:00:16;;;;;;;8.53;6.50;;;5.00;99.90;;;;;;4998383;28;20448;-51
2023/04/08 06:02:43;;;;;;;11.50;9.07;;;5.20;99.90;;;;;;4994952;28;20810;-52
2023/04/08 06:05:10;;;;;;;7.80;7.00;;;5.40;99.90;;;;;;4997156;28;20514;-52
2023/04/08 06:07:37;;;;;;;10.00;8.97;;;5.50;99.90;;;;;;4998503;28;20556;-54
2023/04/08 06:10:06;;;;;;;9.10;8.20;;;5.40;99.90;;;;;;5003077;28;20476;-51
2023/04/08 06:12:36;;;;;;;8.70;7.80;;;5.20;99.90;;;;;;4997769;28;20445;-52
2023/04/08 06:15:03;;;;;;;9.33;8.40;;;4.90;99.90;;;;;;4997208;28;20440;-52
2023/04/08 06:17:31;;;;;;;9.50;7.67;;;5.00;99.90;;;;;;5001226;28;20464;-53
2023/04/08 06:19:58;;;;;;;10.27;7.90;;;5.10;99.90;;;;;;4997735;28;20476;-52
2023/04/08 06:22:25;;;;;;;12.63;10.50;;;5.20;99.90;;;;;;4998640;28;20563;-52
2023/04/08 06:24:52;;;;;;;10.20;9.27;;;5.30;99.90;;;;;;5001738;28;20543;-51
2023/04/08 06:27:19;;;;;;;9.20;8.03;;;5.10;99.90;;;;;;4996536;28;20558;-51
2023/04/08 06:29:46;;;;;;;12.77;11.60;;;5.00;99.90;;;;;;4998176;28;20796;-51
2023/04/08 06:32:13;;;;;;;13.87;11.90;;;4.90;99.90;;;;;;4996875;28;20451;-51
2023/04/08 06:34:42;;;;;;;11.87;10.63;;;4.90;99.90;;;;;;4996332;28;20546;-51
2023/04/08 06:37:09;;;;;;;10.80;9.80;;;5.00;99.90;;;;;;4996963;28;20495;-51
2023/04/08 06:39:36;;;;;;;12.30;10.77;;;4.90;99.90;;;;;;4997877;28;20451;-52
2023/04/08 06:42:03;;;;;;;12.90;8.97;;;5.10;99.90;;;;;;4996686;28;20471;-51
2023/04/08 06:44:29;;;;;;;11.37;10.13;;;5.10;99.90;;;;;;4993039;28;20476;-51
2023/04/08 06:46:56;;;;;;;9.00;8.10;;;5.20;99.90;;;;;;4998538;28;20582;-51
2023/04/08 06:49:23;;;;;;;9.50;8.43;;;5.20;99.90;;;;;;4995919;28;20789;-51
2023/04/08 06:51:52;;;;;;;9.30;8.30;;;5.30;99.90;;;;;;4997277;28;21016;-53
2023/04/08 06:54:19;;;;;;;8.30;7.50;;;5.40;99.90;;;;;;4996273;28;21052;-52
2023/04/08 06:56:46;;;;;;;8.97;8.07;;;5.40;99.90;;;;;;4996384;28;20474;-51
2023/04/08 06:59:13;;;;;;;8.90;8.00;;;5.50;99.90;;;;;;4997010;28;20542;-52
2023/04/08 07:01:40;;;;;;;7.70;6.77;;;5.50;99.90;;;;;;4999010;28;21076;-52
2023/04/08 07:04:07;;;;;;;7.43;6.40;;;5.60;99.90;;;;;;4995604;28;20460;-52
2023/04/08 07:06:34;;;;;;;7.40;6.70;;;5.70;99.90;;;;;;4995669;28;20464;-53
2023/04/08 07:09:03;;;;;;;5.30;4.80;;;5.70;99.90;;;;;;5001074;28;20456;-52
2023/04/08 07:11:30;;;;;;;7.10;6.40;;;5.90;99.90;;;;;;5003183;28;20443;-52
2023/04/08 07:13:57;;;;;;;8.53;6.87;;;6.10;99.90;;;;;;5015316;28;20471;-53
2023/04/08 07:16:24;;;;;;;6.57;5.90;;;6.20;99.90;;;;;;5008215;28;20448;-51
2023/04/08 07:18:51;;;;;;;7.67;6.77;;;6.20;99.90;;;;;;5002329;28;20510;-51
2023/04/08 07:21:18;;;;;;;7.33;6.50;;;6.30;99.90;;;;;;5001607;28;20479;-51
2023/04/08 07:23:45;;;;;;;9.23;8.43;;;6.40;99.90;;;;;;4979937;28;20519;-52
2023/04/08 07:26:13;;;;;;;6.93;6.23;;;6.30;99.90;;;;;;4999662;28;20502;-51
2023/04/08 07:28:40;;;;;;;8.90;7.53;;;6.30;99.90;;;;;;5000111;28;20509;-52
2023/04/08 07:31:12;;;;;;;8.63;7.73;;;6.40;99.90;;;;;;4996141;28;20441;-51
2023/04/08 07:33:39;;;;;;;9.87;7.17;;;6.50;99.90;;;;;;4993667;28;20444;-51
2023/04/08 07:36:06;;;;;;;8.63;7.83;;;6.50;99.90;;;;;;4994043;28;20564;-52
2023/04/08 07:38:33;;;;;;;8.77;7.17;;;6.60;99.90;;;;;;4993098;28;20468;-52
2023/04/08 07:41:00;;;;;;;7.77;6.87;;;6.60;99.90;;;;;;4992488;28;20959;-53
2023/04/08 07:43:28;;;;;;;5.97;5.37;;;6.70;99.90;;;;;;4994052;28;20447;-51
2023/04/08 07:46:01;;;;;;;6.60;6.00;;;6.80;99.90;;;;;;4993084;28;20527;-52
2023/04/08 07:48:28;;;;;;;7.47;6.27;;;6.80;99.90;;;;;;4992073;28;20982;-52
2023/04/08 07:50:55;;;;;;;6.60;5.90;;;6.90;99.90;;;;;;4996709;28;20451;-52
2023/04/08 07:53:23;;;;;;;7.33;6.17;;;6.90;99.90;;;;;;4988604;28;20452;-51
2023/04/08 07:55:51;;;;;;;6.47;5.77;;;7.10;99.90;;;;;;4996520;28;20448;-51
2023/04/08 07:58:18;;;;;;;7.00;6.13;;;7.10;99.90;;;;;;5002077;28;20473;-54
2023/04/08 08:00:46;;;;;;;6.37;5.77;;;7.20;99.90;;;;;;4996166;28;20456;-52
2023/04/08 08:03:13;;;;;;;7.10;5.77;;;7.30;99.90;;;;;;4991749;28;20638;-50
2023/04/08 08:05:40;;;;;;;6.13;5.53;;;7.20;99.90;;;;;;4994969;28;20543;-51
2023/04/08 08:08:07;;;;;;;6.40;5.80;;;7.30;99.90;;;;;;4990340;28;20526;-51
2023/04/08 08:10:34;;;;;;;7.83;5.50;;;7.30;99.90;;;;;;4989681;28;20448;-51
2023/04/08 08:13:01;;;;;;;6.47;5.77;;;7.40;99.90;;;;;;4988055;28;20852;-55
2023/04/08 08:15:28;;;;;;;7.03;5.60;;;7.50;99.90;;;;;;4990624;28;20507;-52
2023/04/08 08:17:56;;;;;;;6.40;5.30;;;7.30;99.90;;;;;;4990812;28;21005;-51
2023/04/08 08:20:23;;;;;;;7.37;6.03;;;7.30;99.90;;;;;;4991337;28;20532;-52
2023/04/08 08:22:50;;;;;;;7.10;6.40;;;7.50;99.90;;;;;;4993672;28;21788;-52
2023/04/08 08:25:18;;;;;;;6.53;5.87;;;7.50;99.90;;;;;;4992608;28;20948;-51
2023/04/08 08:27:45;;;;;;;5.73;5.23;;;7.60;99.90;;;;;;4994574;28;20472;-52
2023/04/08 08:30:12;;;;;;;6.20;5.17;;;7.70;99.90;;;;;;4994391;28;20451;-55
2023/04/08 08:32:39;;;;;;;6.30;5.70;;;7.80;99.90;;;;;;4996373;28;20436;-51
2023/04/08 08:35:09;;;;;;;6.67;5.90;;;7.80;99.90;;;;;;4996833;28;20526;-51
2023/04/08 08:37:36;;;;;;;6.77;5.73;;;7.90;99.90;;;;;;5010400;28;20471;-51
2023/04/08 08:40:03;;;;;;;7.23;6.20;;;8.00;99.90;;;;;;5012731;28;20531;-51
2023/04/08 08:42:30;;;;;;;5.93;5.33;;;8.00;99.90;;;;;;5001633;28;20487;-51
2023/04/08 08:44:57;;;;;;;6.97;6.27;;;8.10;99.90;;;;;;4993000;28;20455;-52
2023/04/08 08:47:25;;;;;;;8.03;6.30;;;8.10;99.90;;;;;;5004197;28;20463;-53
2023/04/08 08:49:52;;;;;;;6.43;5.47;;;8.00;99.90;;;;;;5007665;28;20538;-50
2023/04/08 08:52:20;;;;;;;6.70;5.73;;;8.10;99.90;;;;;;4992757;28;20999;-52
2023/04/08 08:54:47;;;;;;;7.50;5.17;;;8.10;99.90;;;;;;4993336;28;20532;-50
2023/04/08 08:57:18;;;;;;;5.90;5.20;;;8.10;99.90;;;;;;4992476;28;20515;-54
2023/04/08 08:59:47;;;;;;;9.90;5.20;;;8.10;99.90;;;;;;4993623;28;20832;-52
2023/04/08 09:02:27;;;;;;;5.40;4.70;;;8.20;99.90;;;;;;4993566;28;20480;-52
2023/04/08 09:04:59;;;;;;;4.87;4.47;;;8.30;99.90;;;;;;4990012;28;20457;-53
2023/04/08 09:07:29;;;;;;;5.10;3.90;;;8.30;99.90;;;;;;4991228;28;20472;-51
2023/04/08 09:09:58;;;;;;;5.70;4.30;;;8.30;99.90;;;;;;4994745;28;20961;-50
2023/04/08 09:12:27;;;;;;;5.60;4.40;;;8.40;99.90;;;;;;4991252;28;20531;-52
2023/04/08 09:15:04;;;;;;;5.27;4.77;;;8.50;99.90;;;;;;5002874;28;20466;-51
2023/04/08 09:17:35;;;;;;;5.93;4.73;;;8.70;99.90;;;;;;5011692;28;20554;-53
2023/04/08 09:20:10;;;;;;;9.17;5.47;;;8.80;99.90;;;;;;5009669;28;20485;-52
2023/04/08 09:22:56;;;;;;;5.20;4.70;;;8.90;99.90;;;;;;5011209;28;20478;-54
2023/04/08 09:25:25;;;;;;;7.43;5.03;;;9.00;99.90;;;;;;5008808;28;20509;-52
2023/04/08 09:27:53;;;;;;;6.13;5.10;;;9.00;99.90;;;;;;5010943;28;20502;-53
2023/04/08 09:30:23;;;;;;;6.00;4.97;;;9.00;99.90;;;;;;5009757;28;20503;-53
2023/04/08 09:32:50;;;;;;;5.63;5.03;;;9.00;99.90;;;;;;4992108;28;20464;-54
2023/04/08 09:35:18;;;;;;;6.37;4.63;;;9.10;99.90;;;;;;4991253;28;20531;-52
2023/04/08 09:37:46;;;;;;;4.70;4.20;;;9.00;99.90;;;;;;5008361;28;20903;-52
2023/04/08 09:40:16;;;;;;;4.40;3.40;;;9.00;99.90;;;;;;5006539;28;20440;-52
2023/04/08 09:42:47;;;;;;;5.60;4.30;;;9.00;99.90;;;;;;4992033;28;20512;-52
2023/04/08 09:45:15;;;;;;;4.17;3.77;;;8.80;99.90;;;;;;4999326;28;20515;-52
2023/04/08 09:47:52;;;;;;;4.63;3.50;;;8.80;99.90;;;;;;4999338;28;20492;-53
2023/04/08 09:50:22;;;;;;;3.87;3.57;;;8.80;99.90;;;;;;5010749;28;20527;-52
2023/04/08 09:52:55;;;;;;;3.83;3.43;;;8.70;99.90;;;;;;5027058;23;20523;-83
2023/04/08 09:55:27;;;;;;;5.27;4.17;;;8.80;99.90;;;;;;5031267;28;20439;-83
2023/04/08 09:57:59;;;;;;;4.70;3.77;;;8.80;99.90;;;;;;5027460;28;20492;-83
2023/04/08 10:00:30;;;;;;;4.87;3.50;;;8.90;99.90;;;;;;5023376;28;20968;-83
2023/04/08 10:03:06;;;;;;;4.13;3.27;;;8.90;99.90;;;;;;5017216;28;20506;-83
2023/04/08 10:05:36;;;;;;;5.13;4.00;;;9.00;99.90;;;;;;5021540;28;20482;-81
2023/04/08 10:08:04;;;;;;;4.37;3.93;;;9.00;99.90;;;;;;5025222;28;20887;-83
2023/04/08 10:10:34;;;;;;;3.97;3.57;;;9.10;99.90;;;;;;5022901;28;20882;-84
2023/04/08 10:13:02;;;;;;;5.33;4.27;;;9.10;99.90;;;;;;5018783;28;20974;-83
2023/04/08 10:15:30;;;;;;;6.70;4.57;;;9.20;99.90;;;;;;5031399;28;20463;-81
2023/04/08 10:18:35;;;;;;;5.67;4.13;;;9.20;99.90;;;;;;5024291;28;20793;-82
2023/04/08 10:21:02;;;;;;;4.57;4.17;;;9.20;99.90;;;;;;5032437;28;20442;-83
2023/04/08 10:23:57;;;;;;;5.90;4.30;;;9.20;99.90;;;;;;5038344;28;20558;-83
2023/04/08 10:26:34;;;;;;;5.07;4.17;;;9.00;99.90;;;;;;5034520;28;20454;-82
2023/04/08 10:29:41;;;;;;;7.07;4.73;;;9.10;99.90;;;;;;5033577;28;20509;-82
2023/04/08 10:32:08;;;;;;;4.33;3.93;;;9.20;99.90;;;;;;5028811;28;20981;-82
2023/04/08 10:34:36;;;;;;;5.00;4.30;;;9.20;99.90;;;;;;5022836;28;20459;-83
2023/04/08 10:37:03;;;;;;;4.33;3.40;;;9.10;99.90;;;;;;5024745;28;20542;-81
2023/04/08 10:39:31;;;;;;;6.60;4.43;;;9.20;99.90;;;;;;5023189;28;20943;-81
2023/04/08 10:42:02;;;;;;;4.40;3.97;;;9.00;99.90;;;;;;5022694;28;20456;-83
2023/04/08 10:44:29;;;;;;;4.50;4.10;;;9.10;99.90;;;;;;5023625;28;20454;-82
2023/04/08 10:46:56;;;;;;;4.97;4.07;;;9.10;99.90;;;;;;5044284;28;20435;-81
2023/04/08 10:49:33;;;;;;;4.20;3.40;;;9.20;99.90;;;;;;5030938;28;20446;-81
2023/04/08 10:52:00;;;;;;;5.87;3.97;;;9.30;99.90;;;;;;5030443;28;20572;-82
2023/04/08 10:54:27;;;;;;;5.20;4.10;;;9.20;99.90;;;;;;5028416;28;20504;-82
2023/04/08 10:56:54;;;;;;;3.77;3.43;;;9.20;99.90;;;;;;5013053;28;20451;-82
2023/04/08 10:59:30;;;;;;;5.33;4.13;;;9.10;99.90;;;;;;5012691;28;20450;-83
2023/04/08 11:01:58;;;;;;;4.10;3.37;;;9.20;99.90;;;;;;5023512;28;20447;-83
2023/04/08 11:04:26;;;;;;;4.60;4.17;;;9.10;99.90;;;;;;5026873;28;20446;-82
2023/04/08 11:06:53;;;;;;;4.10;3.50;;;9.00;99.90;;;;;;5028523;28;20447;-82
2023/04/08 11:09:20;;;;;;;3.97;3.67;;;9.10;99.90;;;;;;5020983;28;20478;-82
2023/04/08 11:11:47;;;;;;;5.60;4.53;;;9.30;99.90;;;;;;5020090;28;20454;-84
2023/04/08 11:14:16;;;;;;;5.03;4.23;;;9.30;99.90;;;;;;5021704;28;20443;-85
2023/04/08 11:16:49;;;;;;;5.80;4.20;;;8.90;99.90;;;;;;5044783;28;20479;-84
2023/04/08 11:19:16;;;;;;;5.00;4.20;;;8.40;99.90;;;;;;5042419;28;20470;-84
2023/04/08 11:21:43;;;;;;;6.90;5.07;;;8.30;99.90;;;;;;5048595;28;20510;-84
2023/04/08 11:24:12;;;;;;;5.37;4.87;;;8.20;99.90;;;;;;5052585;28;20497;-83
2023/04/08 11:26:40;;;;;;;5.90;5.27;;;8.10;99.90;;;;;;5055015;28;20692;-85
2023/04/08 11:29:13;;;;;;;7.90;4.90;;;7.90;99.90;;;;;;5057972;28;20459;-84
2023/04/08 11:31:41;;;;;;;6.13;4.97;;;8.00;99.90;;;;;;5047755;28;20427;-84
2023/04/08 11:34:09;;;;;;;7.60;5.83;;;7.90;99.90;;;;;;5036142;28;20456;-83
2023/04/08 11:36:36;;;;;;;7.00;5.60;;;8.00;99.90;;;;;;5035471;28;20474;-84
2023/04/08 11:39:09;;;;;;;6.30;4.97;;;8.00;99.90;;;;;;5033599;28;20467;-83
2023/04/08 11:41:37;;;;;;;5.93;5.30;;;8.20;99.90;;;;;;5049256;28;20447;-84
2023/04/08 11:44:05;;;;;;;5.53;4.47;;;8.20;99.90;;;;;;5044267;28;20477;-84
2023/04/08 11:46:33;;;;;;;4.87;4.37;;;8.20;99.90;;;;;;5032472;28;20479;-83
2023/04/08 11:49:03;;;;;;;5.90;5.03;;;8.10;99.90;;;;;;5035387;28;21094;-83
2023/04/08 11:51:33;;;;;;;4.97;4.47;;;8.00;99.90;;;;;;5049766;28;20500;-83
2023/04/08 11:54:01;;;;;;;5.33;4.20;;;8.00;99.90;;;;;;5048622;28;20458;-82
2023/04/08 11:56:29;;;;;;;6.47;5.07;;;8.10;99.90;;;;;;5050568;28;20451;-81
2023/04/08 11:58:56;;;;;;;5.13;4.63;;;8.10;99.90;;;;;;5047615;28;20491;-82
2023/04/08 12:01:23;;;;;;;4.40;3.90;;;8.00;99.90;;;;;;5044769;28;20445;-83
2023/04/08 12:03:57;;;;;;;7.10;4.57;;;8.10;99.90;;;;;;5036125;28;20501;-83
2023/04/08 12:06:26;;;;;;;6.00;4.50;;;8.00;99.90;;;;;;5046934;28;20446;-83
2023/04/08 12:08:55;;;;;;;4.90;4.40;;;7.90;99.90;;;;;;5044358;28;20836;-83
2023/04/08 12:11:23;;;;;;;6.73;4.63;;;7.80;99.90;;;;;;5031826;28;20444;-83
2023/04/08 12:13:51;;;;;;;5.77;5.17;;;7.60;99.90;;;;;;5031988;28;20439;-82
2023/04/08 12:16:20;;;;;;;6.90;5.13;;;7.50;99.90;;;;;;5036941;28;20448;-82
2023/04/08 12:18:47;;;;;;;5.50;5.00;;;7.30;99.90;;;;;;5045235;28;20475;-83
2023/04/08 12:21:14;;;;;;;8.73;5.67;;;7.40;99.90;;;;;;5046995;28;20440;-84
2023/04/08 12:23:41;;;;;;;5.70;5.10;;;7.30;99.90;;;;;;5056028;28;20482;-85
2023/04/08 12:26:10;;;;;;;5.73;5.23;;;7.10;99.90;;;;;;5057625;28;20427;-83
2023/04/08 12:28:37;;;;;;;6.93;5.10;;;7.00;99.90;;;;;;5050481;28;20503;-84
2023/04/08 12:31:04;;;;;;;4.77;3.90;;;6.90;99.90;;;;;;5056209;28;20419;-84
2023/04/08 12:33:31;;;;;;;5.07;4.13;;;6.90;99.90;;;;;;5052430;28;20427;-85
2023/04/08 12:35:59;;;;;;;6.33;4.70;;;6.80;99.90;;;;;;5047339;28;20435;-86
2023/04/08 12:38:27;;;;;;;5.97;4.70;;;6.70;99.90;;;;;;5049448;28;20451;-84
2023/04/08 12:40:54;;;;;;;6.07;5.27;;;6.60;99.90;;;;;;5050929;28;20509;-85
2023/04/08 12:43:23;;;;;;;5.93;5.07;;;6.60;99.90;;;;;;5052015;28;20460;-85
2023/04/08 12:45:51;;;;;;;5.10;4.10;;;6.60;99.90;;;;;;5051064;28;20442;-84
2023/04/08 12:48:18;;;;;;;4.77;4.20;;;6.50;99.90;;;;;;5055745;28;20442;-84
2023/04/08 12:50:45;;;;;;;4.33;3.73;;;6.40;99.90;;;;;;5055634;28;20427;-85
2023/04/08 12:53:12;;;;;;;4.07;3.30;;;6.40;99.90;;;;;;5053900;28;20442;-85
2023/04/08 12:55:39;;;;;;;4.00;3.70;;;6.40;99.90;;;;;;5054559;28;20438;-85
2023/04/08 12:58:06;;;;;;;4.27;3.40;;;6.40;99.90;;;;;;5055051;28;20444;-86
2023/04/08 13:00:36;;;;;;;4.60;3.60;;;6.40;99.90;;;;;;5051138;28;20430;-86